Time;durP1;ratioP1;P1;durP2;ratioP2;P2;SDS_P1;SDS_P2;PMS_P1;PMS_P2;Temp;Humidity;BMP_temperature;BMP_pressure;BME280_temperature;BME280_humidity;BME280_pressure;Samples;Min_cycle;Max_cycle;Signal;HPM_P1;HPM_P2
2021/08/08 00:00:57;;;;;;;0.00;0.00;;;;;;;;;;5110657;28;20227;-71
2021/08/08 00:03:23;;;;;;;0.03;0.03;;;;;;;;;;5110471;28;20206;-71
2021/08/08 00:05:49;;;;;;;0.00;0.00;;;;;;;;;;5103027;28;20205;-70
2021/08/08 00:08:16;;;;;;;0.10;0.10;;;;;;;;;;5115440;28;20457;-71
2021/08/08 00:10:42;;;;;;;0.10;0.10;;;;;;;;;;5123652;28;20200;-71
2021/08/08 00:13:08;;;;;;;0.10;0.10;;;;;;;;;;5113959;28;20488;-70
2021/08/08 00:15:38;;;;;;;0.00;0.00;;;;;;;;;;5103090;28;20223;-70
2021/08/08 00:18:05;;;;;;;0.00;0.00;;;;;;;;;;5103558;28;20235;-70
2021/08/08 00:20:31;;;;;;;0.00;0.00;;;;;;;;;;5103244;28;20229;-70
2021/08/08 00:22:57;;;;;;;0.00;0.00;;;;;;;;;;5103252;28;20204;-70
2021/08/08 00:25:24;;;;;;;0.10;0.10;;;;;;;;;;5103613;28;20213;-70
2021/08/08 00:27:50;;;;;;;0.00;0.00;;;;;;;;;;5107731;28;20380;-71
2021/08/08 00:30:16;;;;;;;0.00;0.00;;;;;;;;;;5112646;28;20246;-71
2021/08/08 00:32:44;;;;;;;0.08;0.08;;;;;;;;;;5105519;28;20236;-70
2021/08/08 00:35:10;;;;;;;0.10;0.10;;;;;;;;;;5114289;28;20464;-71
2021/08/08 00:37:37;;;;;;;0.00;0.00;;;;;;;;;;5117325;28;20204;-71
2021/08/08 00:40:03;;;;;;;0.00;0.00;;;;;;;;;;5103045;28;20242;-71
2021/08/08 00:42:30;;;;;;;0.10;0.10;;;;;;;;;;5106802;28;20257;-69
2021/08/08 00:44:56;;;;;;;0.00;0.00;;;;;;;;;;5117651;28;20218;-70
2021/08/08 00:47:22;;;;;;;0.75;0.75;;;;;;;;;;5114899;28;20557;-70
2021/08/08 00:49:50;;;;;;;0.00;0.00;;;;;;;;;;5123629;28;20441;-72
2021/08/08 00:52:16;;;;;;;0.00;0.00;;;;;;;;;;5124620;28;20550;-70
2021/08/08 00:54:42;;;;;;;0.00;0.00;;;;;;;;;;5111257;28;20496;-71
2021/08/08 00:57:09;;;;;;;0.00;0.00;;;;;;;;;;5110363;28;20198;-71
2021/08/08 00:59:35;;;;;;;0.00;0.00;;;;;;;;;;5106934;28;20206;-70
2021/08/08 01:02:02;;;;;;;0.00;0.00;;;;;;;;;;5114601;28;20212;-70
2021/08/08 01:04:32;;;;;;;0.00;0.00;;;;;;;;;;5115736;28;20424;-70
2021/08/08 01:07:02;;;;;;;0.05;0.05;;;;;;;;;;5111891;28;20269;-71
2021/08/08 01:09:30;;;;;;;0.10;0.10;;;;;;;;;;5106667;28;20388;-71
2021/08/08 01:11:57;;;;;;;0.00;0.00;;;;;;;;;;5120975;28;20213;-71
2021/08/08 01:14:23;;;;;;;0.05;0.05;;;;;;;;;;5126640;28;20223;-71
2021/08/08 01:16:51;;;;;;;0.00;0.00;;;;;;;;;;5114893;28;20206;-71
2021/08/08 01:19:19;;;;;;;0.00;0.00;;;;;;;;;;5120363;28;20229;-70
2021/08/08 01:21:47;;;;;;;0.00;0.00;;;;;;;;;;5106160;28;20231;-70
2021/08/08 01:24:15;;;;;;;0.00;0.00;;;;;;;;;;5120327;28;20203;-70
2021/08/08 01:26:42;;;;;;;0.00;0.00;;;;;;;;;;5106762;28;20203;-70
2021/08/08 01:29:08;;;;;;;0.00;0.00;;;;;;;;;;5105767;28;20217;-71
2021/08/08 01:31:35;;;;;;;0.00;0.00;;;;;;;;;;5113747;28;20193;-71
2021/08/08 01:34:01;;;;;;;0.00;0.00;;;;;;;;;;5112721;28;20206;-71
2021/08/08 01:36:27;;;;;;;0.10;0.10;;;;;;;;;;5111313;28;20462;-70
2021/08/08 01:38:55;;;;;;;0.00;0.00;;;;;;;;;;5126579;28;20203;-70
2021/08/08 01:41:26;;;;;;;0.00;0.00;;;;;;;;;;5108036;28;20220;-70
2021/08/08 01:43:52;;;;;;;0.10;0.10;;;;;;;;;;5116431;28;20244;-70
2021/08/08 01:46:21;;;;;;;0.00;0.00;;;;;;;;;;5126369;28;20205;-71
2021/08/08 01:48:48;;;;;;;0.10;0.10;;;;;;;;;;5118859;28;20201;-70
2021/08/08 01:51:14;;;;;;;0.10;0.10;;;;;;;;;;5119973;28;20362;-70
2021/08/08 01:53:41;;;;;;;0.10;0.10;;;;;;;;;;5113159;28;20554;-70
2021/08/08 01:56:07;;;;;;;0.00;0.00;;;;;;;;;;5112479;28;20204;-70
2021/08/08 01:58:36;;;;;;;0.00;0.00;;;;;;;;;;5105649;28;20608;-71
2021/08/08 02:01:02;;;;;;;0.00;0.00;;;;;;;;;;5105395;28;20235;-70
2021/08/08 02:03:33;;;;;;;0.10;0.10;;;;;;;;;;5104526;28;20206;-70
2021/08/08 02:05:59;;;;;;;0.00;0.00;;;;;;;;;;5105472;28;20202;-71
2021/08/08 02:08:25;;;;;;;0.00;0.00;;;;;;;;;;5118195;28;20219;-70
2021/08/08 02:10:51;;;;;;;0.00;0.00;;;;;;;;;;5106510;28;20200;-71
2021/08/08 02:13:18;;;;;;;0.00;0.00;;;;;;;;;;5104903;28;20272;-70
2021/08/08 02:15:45;;;;;;;0.00;0.00;;;;;;;;;;5105100;28;20265;-71
2021/08/08 02:18:11;;;;;;;0.00;0.00;;;;;;;;;;5114128;28;20226;-72
2021/08/08 02:20:38;;;;;;;0.00;0.00;;;;;;;;;;5109926;27;20228;-72
2021/08/08 02:23:04;;;;;;;0.08;0.08;;;;;;;;;;5105113;28;20203;-70
2021/08/08 02:25:31;;;;;;;0.00;0.00;;;;;;;;;;5118688;28;20483;-70
2021/08/08 02:27:57;;;;;;;0.00;0.00;;;;;;;;;;5105930;28;20203;-70
2021/08/08 02:30:23;;;;;;;0.00;0.00;;;;;;;;;;5104408;28;20205;-70
2021/08/08 02:32:52;;;;;;;0.10;0.10;;;;;;;;;;5119092;28;20209;-70
2021/08/08 02:35:18;;;;;;;0.00;0.00;;;;;;;;;;5104825;28;20227;-70
2021/08/08 02:37:44;;;;;;;0.00;0.00;;;;;;;;;;5114124;28;20200;-70
2021/08/08 02:40:11;;;;;;;0.05;0.05;;;;;;;;;;5124976;27;20221;-70
2021/08/08 02:42:37;;;;;;;0.00;0.00;;;;;;;;;;5123466;28;20205;-71
2021/08/08 02:45:03;;;;;;;0.10;0.10;;;;;;;;;;5111210;28;20238;-70
2021/08/08 02:47:30;;;;;;;0.10;0.10;;;;;;;;;;5111942;27;20205;-70
2021/08/08 02:49:58;;;;;;;0.10;0.10;;;;;;;;;;5109147;28;20209;-70
2021/08/08 02:52:24;;;;;;;0.00;0.00;;;;;;;;;;5113834;28;20402;-70
2021/08/08 02:54:50;;;;;;;0.00;0.00;;;;;;;;;;5106839;28;20213;-70
2021/08/08 02:57:17;;;;;;;0.00;0.00;;;;;;;;;;5124596;28;20212;-70
2021/08/08 02:59:43;;;;;;;0.00;0.00;;;;;;;;;;5123979;28;20241;-71
2021/08/08 03:02:09;;;;;;;0.00;0.00;;;;;;;;;;5104440;28;20241;-70
2021/08/08 03:04:35;;;;;;;0.00;0.00;;;;;;;;;;5104869;28;20234;-70
2021/08/08 03:07:03;;;;;;;0.00;0.00;;;;;;;;;;5108446;28;20219;-70
2021/08/08 03:09:31;;;;;;;0.10;0.10;;;;;;;;;;5113770;28;20212;-70
2021/08/08 03:11:57;;;;;;;0.00;0.00;;;;;;;;;;5103771;28;20201;-71
2021/08/08 03:14:24;;;;;;;0.00;0.00;;;;;;;;;;5103939;28;20204;-70
2021/08/08 03:16:50;;;;;;;0.03;0.03;;;;;;;;;;5105246;28;20511;-70
2021/08/08 03:19:17;;;;;;;0.00;0.00;;;;;;;;;;5124089;28;20231;-70
2021/08/08 03:21:43;;;;;;;0.00;0.00;;;;;;;;;;5110444;28;20269;-71
2021/08/08 03:24:11;;;;;;;0.00;0.00;;;;;;;;;;5124057;28;20495;-71
2021/08/08 03:26:37;;;;;;;0.10;0.10;;;;;;;;;;5111862;28;20254;-71
2021/08/08 03:29:03;;;;;;;0.08;0.08;;;;;;;;;;5107426;28;20239;-70
2021/08/08 03:31:30;;;;;;;0.10;0.10;;;;;;;;;;5117726;28;20193;-69
2021/08/08 03:33:56;;;;;;;0.00;0.00;;;;;;;;;;5107636;28;20205;-69
2021/08/08 03:36:23;;;;;;;0.00;0.00;;;;;;;;;;5103572;28;20255;-69
2021/08/08 03:38:49;;;;;;;0.10;0.10;;;;;;;;;;5117134;28;20245;-72
2021/08/08 03:41:17;;;;;;;0.00;0.00;;;;;;;;;;5103831;28;20218;-71
2021/08/08 03:43:43;;;;;;;0.00;0.00;;;;;;;;;;5103670;28;20482;-70
2021/08/08 03:46:09;;;;;;;0.10;0.10;;;;;;;;;;5107437;28;20488;-70
2021/08/08 03:48:36;;;;;;;0.08;0.08;;;;;;;;;;5113100;28;20213;-71
2021/08/08 03:51:02;;;;;;;0.08;0.08;;;;;;;;;;5113728;28;20498;-70
2021/08/08 03:53:28;;;;;;;0.00;0.00;;;;;;;;;;5108464;28;20201;-69
2021/08/08 03:55:54;;;;;;;0.10;0.10;;;;;;;;;;5103897;28;20211;-70
2021/08/08 03:58:23;;;;;;;0.00;0.00;;;;;;;;;;5109156;28;20428;-70
2021/08/08 04:00:49;;;;;;;0.00;0.00;;;;;;;;;;5110322;28;20237;-70
2021/08/08 04:03:16;;;;;;;0.00;0.00;;;;;;;;;;5102472;28;20528;-70
2021/08/08 04:05:42;;;;;;;0.00;0.00;;;;;;;;;;5111295;28;20201;-69
2021/08/08 04:08:08;;;;;;;0.00;0.00;;;;;;;;;;5107194;28;20206;-69
2021/08/08 04:10:35;;;;;;;0.10;0.10;;;;;;;;;;5119134;28;20204;-70
2021/08/08 04:13:01;;;;;;;0.00;0.00;;;;;;;;;;5108874;28;20467;-69
2021/08/08 04:15:28;;;;;;;0.00;0.00;;;;;;;;;;5108926;28;20214;-69
2021/08/08 04:17:55;;;;;;;0.00;0.00;;;;;;;;;;5108037;28;20220;-70
2021/08/08 04:20:21;;;;;;;0.00;0.00;;;;;;;;;;5112742;28;20206;-71
2021/08/08 04:22:47;;;;;;;0.00;0.00;;;;;;;;;;5111770;28;20227;-70
2021/08/08 04:25:13;;;;;;;0.05;0.05;;;;;;;;;;5114032;28;20249;-69
2021/08/08 04:27:40;;;;;;;0.10;0.10;;;;;;;;;;5104883;28;20200;-70
2021/08/08 04:30:06;;;;;;;0.00;0.00;;;;;;;;;;5119588;28;20211;-71
2021/08/08 04:32:34;;;;;;;0.00;0.00;;;;;;;;;;5108857;28;20199;-70
2021/08/08 04:35:01;;;;;;;0.10;0.10;;;;;;;;;;5117643;27;20241;-71
2021/08/08 04:37:27;;;;;;;0.00;0.00;;;;;;;;;;5111085;28;20199;-70
2021/08/08 04:39:53;;;;;;;0.00;0.00;;;;;;;;;;5113752;28;20424;-70
2021/08/08 04:42:20;;;;;;;0.00;0.00;;;;;;;;;;5109411;28;20266;-70
2021/08/08 04:44:46;;;;;;;0.10;0.10;;;;;;;;;;5109328;28;20199;-70
2021/08/08 04:47:12;;;;;;;0.00;0.00;;;;;;;;;;5116603;28;20220;-71
2021/08/08 04:49:40;;;;;;;0.00;0.00;;;;;;;;;;5114541;28;20511;-70
2021/08/08 04:52:06;;;;;;;0.05;0.05;;;;;;;;;;5107585;28;20209;-69
2021/08/08 04:54:32;;;;;;;0.10;0.10;;;;;;;;;;5111800;28;20239;-69
2021/08/08 04:56:59;;;;;;;0.10;0.10;;;;;;;;;;5109336;28;20204;-70
2021/08/08 04:59:25;;;;;;;0.00;0.00;;;;;;;;;;5113591;28;20242;-70
2021/08/08 05:01:51;;;;;;;0.10;0.10;;;;;;;;;;5107421;28;20223;-69
2021/08/08 05:04:17;;;;;;;0.00;0.00;;;;;;;;;;5110503;28;20376;-71
2021/08/08 05:06:45;;;;;;;0.00;0.00;;;;;;;;;;5112600;28;20211;-70
2021/08/08 05:09:12;;;;;;;0.10;0.10;;;;;;;;;;5109168;28;20228;-70
2021/08/08 05:11:38;;;;;;;0.10;0.10;;;;;;;;;;5113800;28;20362;-70
2021/08/08 05:14:05;;;;;;;0.05;0.05;;;;;;;;;;5108850;27;20227;-70
2021/08/08 05:16:31;;;;;;;0.00;0.00;;;;;;;;;;5118050;28;20211;-70
2021/08/08 05:18:57;;;;;;;0.00;0.00;;;;;;;;;;5114450;28;20223;-69
2021/08/08 05:21:23;;;;;;;0.03;0.03;;;;;;;;;;5116107;28;20223;-69
2021/08/08 05:23:51;;;;;;;0.00;0.00;;;;;;;;;;5111734;28;20199;-69
2021/08/08 05:26:17;;;;;;;0.05;0.05;;;;;;;;;;5111771;28;20203;-69
2021/08/08 05:28:44;;;;;;;0.00;0.00;;;;;;;;;;5106018;28;20257;-70
2021/08/08 05:31:10;;;;;;;0.10;0.10;;;;;;;;;;5111015;28;20200;-69
2021/08/08 05:33:36;;;;;;;0.08;0.08;;;;;;;;;;5117007;28;20466;-70
2021/08/08 05:36:02;;;;;;;0.00;0.00;;;;;;;;;;5112858;28;20209;-70
2021/08/08 05:38:29;;;;;;;0.00;0.00;;;;;;;;;;5111276;28;20480;-71
2021/08/08 05:40:56;;;;;;;0.00;0.00;;;;;;;;;;5119509;28;20238;-70
2021/08/08 05:43:23;;;;;;;0.00;0.00;;;;;;;;;;5108690;28;20203;-69
2021/08/08 05:45:49;;;;;;;0.10;0.10;;;;;;;;;;5108657;28;20203;-69
2021/08/08 05:48:15;;;;;;;0.00;0.00;;;;;;;;;;5108348;28;20205;-70
2021/08/08 05:50:42;;;;;;;0.08;0.08;;;;;;;;;;5116306;28;20211;-69
2021/08/08 05:53:08;;;;;;;0.00;0.00;;;;;;;;;;5110688;28;20246;-70
2021/08/08 05:55:34;;;;;;;0.10;0.10;;;;;;;;;;5107567;27;20201;-70
2021/08/08 05:58:02;;;;;;;0.08;0.08;;;;;;;;;;5116512;28;20203;-70
2021/08/08 06:00:28;;;;;;;0.00;0.00;;;;;;;;;;5106710;28;20252;-69
2021/08/08 06:02:54;;;;;;;0.00;0.00;;;;;;;;;;5114019;28;20227;-70
2021/08/08 06:05:20;;;;;;;0.00;0.00;;;;;;;;;;5106728;28;20267;-72
2021/08/08 06:07:47;;;;;;;0.10;0.10;;;;;;;;;;5119623;28;20430;-72
2021/08/08 06:10:14;;;;;;;0.10;0.10;;;;;;;;;;5113706;28;20208;-72
2021/08/08 06:12:40;;;;;;;0.00;0.00;;;;;;;;;;5116542;28;20240;-71
2021/08/08 06:15:08;;;;;;;0.03;0.03;;;;;;;;;;5116919;28;20207;-70
2021/08/08 06:17:34;;;;;;;0.00;0.00;;;;;;;;;;5115410;28;20254;-69
2021/08/08 06:20:00;;;;;;;0.10;0.10;;;;;;;;;;5122978;28;20255;-69
2021/08/08 06:22:27;;;;;;;0.10;0.10;;;;;;;;;;5108070;28;20273;-70
2021/08/08 06:24:53;;;;;;;0.03;0.03;;;;;;;;;;5107533;28;20352;-72
2021/08/08 06:27:19;;;;;;;0.10;0.10;;;;;;;;;;5107444;28;20548;-69
2021/08/08 06:29:46;;;;;;;0.00;0.00;;;;;;;;;;5104792;28;20514;-70
2021/08/08 06:32:13;;;;;;;0.10;0.10;;;;;;;;;;5113184;28;20204;-71
2021/08/08 06:34:42;;;;;;;0.00;0.00;;;;;;;;;;5112902;28;20211;-71
2021/08/08 06:37:08;;;;;;;0.00;0.00;;;;;;;;;;5114201;28;20478;-71
2021/08/08 06:39:34;;;;;;;0.10;0.10;;;;;;;;;;5112758;28;20564;-70
2021/08/08 06:42:00;;;;;;;0.10;0.10;;;;;;;;;;5109956;28;20228;-71
2021/08/08 06:44:28;;;;;;;0.10;0.10;;;;;;;;;;5107416;28;20204;-71
2021/08/08 06:46:54;;;;;;;0.10;0.10;;;;;;;;;;5111891;28;20237;-70
2021/08/08 06:49:22;;;;;;;0.08;0.08;;;;;;;;;;5111086;27;20209;-70
2021/08/08 06:51:48;;;;;;;0.00;0.00;;;;;;;;;;5109229;28;20201;-69
2021/08/08 06:54:14;;;;;;;0.00;0.00;;;;;;;;;;5107192;28;20206;-70
2021/08/08 06:56:40;;;;;;;0.00;0.00;;;;;;;;;;5109834;28;20205;-71
2021/08/08 06:59:07;;;;;;;0.10;0.10;;;;;;;;;;5106271;28;20201;-70
2021/08/08 07:01:33;;;;;;;0.10;0.10;;;;;;;;;;5112683;28;20242;-70
2021/08/08 07:04:00;;;;;;;0.10;0.10;;;;;;;;;;5105950;28;20246;-70
2021/08/08 07:06:28;;;;;;;0.00;0.00;;;;;;;;;;5109721;28;20220;-69
2021/08/08 07:08:54;;;;;;;0.00;0.00;;;;;;;;;;5108207;28;20392;-69
2021/08/08 07:11:20;;;;;;;0.00;0.00;;;;;;;;;;5118171;28;20256;-69
2021/08/08 07:13:46;;;;;;;0.10;0.10;;;;;;;;;;5109217;28;20241;-68
2021/08/08 07:16:13;;;;;;;0.05;0.05;;;;;;;;;;5106453;28;20192;-68
2021/08/08 07:18:39;;;;;;;0.00;0.00;;;;;;;;;;5108671;28;20537;-68
2021/08/08 07:21:05;;;;;;;0.00;0.00;;;;;;;;;;5103473;28;20249;-70
2021/08/08 07:23:33;;;;;;;0.00;0.00;;;;;;;;;;5118025;28;20233;-70
2021/08/08 07:25:59;;;;;;;0.00;0.00;;;;;;;;;;5107031;28;20330;-70
2021/08/08 07:28:26;;;;;;;0.10;0.10;;;;;;;;;;5108978;28;20238;-71
2021/08/08 07:30:52;;;;;;;0.00;0.00;;;;;;;;;;5113190;28;20242;-71
2021/08/08 07:33:18;;;;;;;0.05;0.05;;;;;;;;;;5107137;28;20213;-71
2021/08/08 07:35:45;;;;;;;0.00;0.00;;;;;;;;;;5106861;28;20322;-69
2021/08/08 07:38:11;;;;;;;0.00;0.00;;;;;;;;;;5118999;28;20202;-70
2021/08/08 07:40:39;;;;;;;0.00;0.00;;;;;;;;;;5109218;28;20201;-69
2021/08/08 07:43:05;;;;;;;0.10;0.10;;;;;;;;;;5103262;28;20253;-68
2021/08/08 07:45:31;;;;;;;0.08;0.08;;;;;;;;;;5116313;28;20277;-67
2021/08/08 07:47:57;;;;;;;0.03;0.03;;;;;;;;;;5104852;28;20203;-68
2021/08/08 07:50:24;;;;;;;0.00;0.00;;;;;;;;;;5103526;28;20205;-68
2021/08/08 07:52:50;;;;;;;0.00;0.00;;;;;;;;;;5112922;28;20495;-69
2021/08/08 07:55:16;;;;;;;0.00;0.00;;;;;;;;;;5113392;28;20390;-69
2021/08/08 07:57:44;;;;;;;0.10;0.10;;;;;;;;;;5117580;28;20274;-70
2021/08/08 08:00:10;;;;;;;0.00;0.00;;;;;;;;;;5103231;28;20214;-69
2021/08/08 08:02:37;;;;;;;0.10;0.10;;;;;;;;;;5106715;28;20223;-69
2021/08/08 08:05:03;;;;;;;0.10;0.10;;;;;;;;;;5108263;28;20510;-69
2021/08/08 08:07:30;;;;;;;0.30;0.30;;;;;;;;;;5119081;28;20250;-73
2021/08/08 08:09:56;;;;;;;0.00;0.00;;;;;;;;;;5115338;28;20211;-72
2021/08/08 08:12:22;;;;;;;0.10;0.10;;;;;;;;;;5126049;28;20240;-72
2021/08/08 08:14:50;;;;;;;0.03;0.03;;;;;;;;;;5126423;28;20241;-73
2021/08/08 08:17:16;;;;;;;0.00;0.00;;;;;;;;;;5126262;28;20198;-73
2021/08/08 08:19:42;;;;;;;0.00;0.00;;;;;;;;;;5114531;28;20224;-69
2021/08/08 08:22:09;;;;;;;0.03;0.03;;;;;;;;;;5107386;28;20231;-71
2021/08/08 08:24:35;;;;;;;0.08;0.08;;;;;;;;;;5108825;28;20205;-71
2021/08/08 08:27:01;;;;;;;0.00;0.00;;;;;;;;;;5107497;28;20260;-71
2021/08/08 08:29:27;;;;;;;0.00;0.00;;;;;;;;;;5115032;28;20563;-70
2021/08/08 08:31:55;;;;;;;0.10;0.10;;;;;;;;;;5108149;28;20219;-68
2021/08/08 08:34:21;;;;;;;0.00;0.00;;;;;;;;;;5119970;28;20244;-69
2021/08/08 08:36:47;;;;;;;0.00;0.00;;;;;;;;;;5121502;28;20250;-69
2021/08/08 08:39:14;;;;;;;0.00;0.00;;;;;;;;;;5111106;28;20541;-69
2021/08/08 08:41:40;;;;;;;0.00;0.00;;;;;;;;;;5112335;28;20200;-69
2021/08/08 08:44:07;;;;;;;0.00;0.00;;;;;;;;;;5108927;28;20232;-70
2021/08/08 08:46:34;;;;;;;0.00;0.00;;;;;;;;;;5111900;28;20205;-69
2021/08/08 08:49:02;;;;;;;0.00;0.00;;;;;;;;;;5114523;28;20205;-70
2021/08/08 08:51:31;;;;;;;0.00;0.00;;;;;;;;;;5112962;28;20204;-73
2021/08/08 08:54:00;;;;;;;0.00;0.00;;;;;;;;;;5116936;28;20209;-73
2021/08/08 08:56:26;;;;;;;0.00;0.00;;;;;;;;;;5111415;28;20235;-72
2021/08/08 08:58:52;;;;;;;0.00;0.00;;;;;;;;;;5111478;28;20245;-70
2021/08/08 09:01:19;;;;;;;0.00;0.00;;;;;;;;;;5109247;28;20197;-71
2021/08/08 09:03:45;;;;;;;0.00;0.00;;;;;;;;;;5109108;28;20265;-70
2021/08/08 09:06:13;;;;;;;0.00;0.00;;;;;;;;;;5117319;28;20225;-70
2021/08/08 09:08:40;;;;;;;0.00;0.00;;;;;;;;;;5113951;28;20270;-74
2021/08/08 09:11:08;;;;;;;0.00;0.00;;;;;;;;;;5108181;28;20213;-74
2021/08/08 09:13:47;;;;;;;0.00;0.00;;;;;;;;;;5122101;28;20199;-71
2021/08/08 09:16:14;;;;;;;0.00;0.00;;;;;;;;;;5113271;28;20201;-72
2021/08/08 09:18:47;;;;;;;0.03;0.03;;;;;;;;;;5115008;28;20254;-71
2021/08/08 09:21:15;;;;;;;0.00;0.00;;;;;;;;;;5115013;28;20468;-72
2021/08/08 09:23:42;;;;;;;0.00;0.00;;;;;;;;;;5111135;28;20239;-72
2021/08/08 09:26:08;;;;;;;0.00;0.00;;;;;;;;;;5108409;28;20212;-71
2021/08/08 09:28:34;;;;;;;0.00;0.00;;;;;;;;;;5115959;28;20527;-69
2021/08/08 09:31:01;;;;;;;0.00;0.00;;;;;;;;;;5118095;27;20247;-70
2021/08/08 09:33:27;;;;;;;0.00;0.00;;;;;;;;;;5112160;28;20195;-70
2021/08/08 09:35:54;;;;;;;0.00;0.00;;;;;;;;;;5105983;28;20213;-73
2021/08/08 09:38:22;;;;;;;0.00;0.00;;;;;;;;;;5116403;28;20204;-70
2021/08/08 09:40:56;;;;;;;0.00;0.00;;;;;;;;;;5110799;28;20209;-72
2021/08/08 09:43:25;;;;;;;0.00;0.00;;;;;;;;;;5113184;28;20218;-74
2021/08/08 09:45:51;;;;;;;0.00;0.00;;;;;;;;;;5115206;28;20218;-75
2021/08/08 09:48:18;;;;;;;0.00;0.00;;;;;;;;;;5109310;28;20204;-71
2021/08/08 09:50:45;;;;;;;0.00;0.00;;;;;;;;;;5117721;28;20202;-77
2021/08/08 09:53:17;;;;;;;0.00;0.00;;;;;;;;;;5110977;28;20260;-78
2021/08/08 09:55:44;;;;;;;0.00;0.00;;;;;;;;;;5117246;27;20264;-75
2021/08/08 09:58:17;;;;;;;0.10;0.10;;;;;;;;;;5121093;27;20210;-76
2021/08/08 10:00:43;;;;;;;0.10;0.10;;;;;;;;;;5108052;28;20199;-72
2021/08/08 10:03:11;;;;;;;0.00;0.00;;;;;;;;;;5108158;28;20331;-78
2021/08/08 10:05:39;;;;;;;0.00;0.00;;;;;;;;;;5112484;28;20200;-77
2021/08/08 10:08:07;;;;;;;0.00;0.00;;;;;;;;;;5111292;28;20265;-78
2021/08/08 10:10:34;;;;;;;0.00;0.00;;;;;;;;;;5109075;28;20220;-75
2021/08/08 10:13:14;;;;;;;0.10;0.10;;;;;;;;;;5106890;28;20247;-76
2021/08/08 10:15:42;;;;;;;0.00;0.00;;;;;;;;;;5116405;28;20201;-75
2021/08/08 10:18:09;;;;;;;0.00;0.00;;;;;;;;;;5112464;28;20237;-75
2021/08/08 10:20:35;;;;;;;0.03;0.03;;;;;;;;;;5108377;28;20209;-76
2021/08/08 10:23:02;;;;;;;0.10;0.10;;;;;;;;;;5115150;28;20233;-77
2021/08/08 10:25:30;;;;;;;0.00;0.00;;;;;;;;;;5111353;28;20202;-80
2021/08/08 10:27:56;;;;;;;0.00;0.00;;;;;;;;;;5112928;28;20496;-78
2021/08/08 10:30:26;;;;;;;0.00;0.00;;;;;;;;;;5111302;28;20202;-78
2021/08/08 10:32:53;;;;;;;0.00;0.00;;;;;;;;;;5115221;28;20216;-80
2021/08/08 10:35:19;;;;;;;0.00;0.00;;;;;;;;;;5113492;28;20197;-76
2021/08/08 10:37:47;;;;;;;0.00;0.00;;;;;;;;;;5115236;27;20247;-74
2021/08/08 10:40:25;;;;;;;0.00;0.00;;;;;;;;;;5111555;28;20204;-76
2021/08/08 10:42:51;;;;;;;0.00;0.00;;;;;;;;;;5109640;28;20525;-74
2021/08/08 10:45:22;;;;;;;0.00;0.00;;;;;;;;;;5116209;28;20399;-78
2021/08/08 10:47:55;;;;;;;0.00;0.00;;;;;;;;;;5109281;28;20207;-74
2021/08/08 10:50:23;;;;;;;0.00;0.00;;;;;;;;;;5117417;28;20268;-75
2021/08/08 10:52:49;;;;;;;0.00;0.00;;;;;;;;;;5113816;28;20213;-75
2021/08/08 10:55:27;;;;;;;0.00;0.00;;;;;;;;;;5114998;28;20201;-74
2021/08/08 10:57:54;;;;;;;0.00;0.00;;;;;;;;;;5111914;28;20206;-73
2021/08/08 11:00:20;;;;;;;0.00;0.00;;;;;;;;;;5106173;28;20543;-72
2021/08/08 11:02:47;;;;;;;0.00;0.00;;;;;;;;;;5106590;28;20221;-71
2021/08/08 11:05:16;;;;;;;0.00;0.00;;;;;;;;;;5105324;28;20236;-73
2021/08/08 11:07:43;;;;;;;0.00;0.00;;;;;;;;;;5113633;28;20213;-73
2021/08/08 11:10:09;;;;;;;0.00;0.00;;;;;;;;;;5112237;28;20251;-72
2021/08/08 11:12:38;;;;;;;0.00;0.00;;;;;;;;;;5107145;28;20522;-73
2021/08/08 11:15:04;;;;;;;0.00;0.00;;;;;;;;;;5109332;28;20269;-74
2021/08/08 11:17:31;;;;;;;0.00;0.00;;;;;;;;;;5104129;28;20203;-70
2021/08/08 11:19:57;;;;;;;0.10;0.10;;;;;;;;;;5106570;28;20232;-70
2021/08/08 11:22:25;;;;;;;0.10;0.10;;;;;;;;;;5107391;28;20246;-72
2021/08/08 11:24:58;;;;;;;0.00;0.00;;;;;;;;;;5106331;28;20545;-71
2021/08/08 11:27:32;;;;;;;0.08;0.08;;;;;;;;;;5112271;28;20205;-70
2021/08/08 11:29:58;;;;;;;0.00;0.00;;;;;;;;;;5116059;28;20212;-74
2021/08/08 11:32:27;;;;;;;0.10;0.10;;;;;;;;;;5115421;28;20198;-74
2021/08/08 11:34:58;;;;;;;0.00;0.00;;;;;;;;;;5118613;28;20196;-73
2021/08/08 11:37:30;;;;;;;0.00;0.00;;;;;;;;;;5104185;28;20226;-72
2021/08/08 11:39:56;;;;;;;0.00;0.00;;;;;;;;;;5103838;28;20199;-74
2021/08/08 11:42:29;;;;;;;0.00;0.00;;;;;;;;;;5112598;28;20272;-74
2021/08/08 11:44:55;;;;;;;0.00;0.00;;;;;;;;;;5104826;28;20481;-74
2021/08/08 11:47:24;;;;;;;0.00;0.00;;;;;;;;;;5115890;28;20242;-70
2021/08/08 11:49:50;;;;;;;0.03;0.03;;;;;;;;;;5110899;28;20270;-67
2021/08/08 11:52:17;;;;;;;0.90;0.88;;;;;;;;;;5115142;28;20201;-69
2021/08/08 11:54:45;;;;;;;0.00;0.00;;;;;;;;;;5110042;28;20490;-71
2021/08/08 11:57:23;;;;;;;0.00;0.00;;;;;;;;;;5111022;28;20210;-82
2021/08/08 11:59:50;;;;;;;0.03;0.03;;;;;;;;;;5104311;28;20240;-78
2021/08/08 12:02:18;;;;;;;0.10;0.10;;;;;;;;;;5103393;28;20229;-73
2021/08/08 12:04:44;;;;;;;0.35;0.35;;;;;;;;;;5107134;28;20402;-78
2021/08/08 12:07:11;;;;;;;0.10;0.10;;;;;;;;;;5124600;28;20213;-75
2021/08/08 12:09:37;;;;;;;0.00;0.00;;;;;;;;;;5117114;28;20285;-74
2021/08/08 12:12:06;;;;;;;0.00;0.00;;;;;;;;;;5125054;28;20198;-75
2021/08/08 12:14:34;;;;;;;0.00;0.00;;;;;;;;;;5116356;28;20210;-75
2021/08/08 12:17:02;;;;;;;0.00;0.00;;;;;;;;;;5123713;28;20414;-75
2021/08/08 12:19:29;;;;;;;0.00;0.00;;;;;;;;;;5104022;28;20224;-74
2021/08/08 12:22:00;;;;;;;0.10;0.10;;;;;;;;;;5107672;28;20205;-75
2021/08/08 12:24:31;;;;;;;0.00;0.00;;;;;;;;;;5108757;28;20252;-75
2021/08/08 12:26:57;;;;;;;0.08;0.08;;;;;;;;;;5118842;28;20514;-74
2021/08/08 12:29:30;;;;;;;0.00;0.00;;;;;;;;;;5114649;28;20194;-75
2021/08/08 12:32:05;;;;;;;0.00;0.00;;;;;;;;;;5112540;28;20217;-75
2021/08/08 12:34:31;;;;;;;0.00;0.00;;;;;;;;;;5103492;28;20531;-75
2021/08/08 12:37:02;;;;;;;0.10;0.10;;;;;;;;;;5117849;28;20239;-75
2021/08/08 12:39:28;;;;;;;0.00;0.00;;;;;;;;;;5108788;28;20423;-75
2021/08/08 12:41:55;;;;;;;0.00;0.00;;;;;;;;;;5125288;28;20209;-74
2021/08/08 12:44:32;;;;;;;0.00;0.00;;;;;;;;;;5107483;28;20222;-75
2021/08/08 12:46:59;;;;;;;0.10;0.10;;;;;;;;;;5122302;28;20221;-74
2021/08/08 12:49:32;;;;;;;0.00;0.00;;;;;;;;;;5113561;28;20209;-74
2021/08/08 12:51:58;;;;;;;0.00;0.00;;;;;;;;;;5128098;28;20202;-74
2021/08/08 12:54:24;;;;;;;0.00;0.00;;;;;;;;;;5127468;28;20220;-75
2021/08/08 12:56:51;;;;;;;0.00;0.00;;;;;;;;;;5127754;28;20247;-75
2021/08/08 12:59:17;;;;;;;0.10;0.10;;;;;;;;;;5116348;28;20198;-75
2021/08/08 13:01:45;;;;;;;0.00;0.00;;;;;;;;;;5127342;28;20221;-75
2021/08/08 13:04:12;;;;;;;0.00;0.00;;;;;;;;;;5114674;28;20340;-73
2021/08/08 13:06:38;;;;;;;0.00;0.00;;;;;;;;;;5108962;28;20469;-74
2021/08/08 13:09:04;;;;;;;0.00;0.00;;;;;;;;;;5110927;28;20274;-74
2021/08/08 13:11:31;;;;;;;0.00;0.00;;;;;;;;;;5112022;28;20269;-77
2021/08/08 13:13:57;;;;;;;0.00;0.00;;;;;;;;;;5112855;28;20528;-73
2021/08/08 13:16:23;;;;;;;0.00;0.00;;;;;;;;;;5114169;27;20198;-72
2021/08/08 13:18:51;;;;;;;0.00;0.00;;;;;;;;;;5109212;28;20280;-74
2021/08/08 13:21:17;;;;;;;0.00;0.00;;;;;;;;;;5112879;28;20214;-73
2021/08/08 13:23:44;;;;;;;0.00;0.00;;;;;;;;;;5112180;28;20230;-72
2021/08/08 13:26:10;;;;;;;0.00;0.00;;;;;;;;;;5111996;28;20384;-72
2021/08/08 13:28:37;;;;;;;0.00;0.00;;;;;;;;;;5120344;28;20221;-73
2021/08/08 13:31:05;;;;;;;0.00;0.00;;;;;;;;;;5116014;28;20202;-75
2021/08/08 13:33:32;;;;;;;0.20;0.20;;;;;;;;;;5113545;27;20516;-74
2021/08/08 13:35:59;;;;;;;0.00;0.00;;;;;;;;;;5125470;27;20202;-74
2021/08/08 13:38:26;;;;;;;0.03;0.03;;;;;;;;;;5112768;28;20432;-75
2021/08/08 13:40:52;;;;;;;0.00;0.00;;;;;;;;;;5114387;28;20523;-73
2021/08/08 13:43:19;;;;;;;0.00;0.00;;;;;;;;;;5112075;28;20195;-74
2021/08/08 13:45:45;;;;;;;0.00;0.00;;;;;;;;;;5125114;28;20226;-74
2021/08/08 13:48:13;;;;;;;0.00;0.00;;;;;;;;;;5113622;27;20226;-74
2021/08/08 13:50:39;;;;;;;0.00;0.00;;;;;;;;;;5113188;28;20199;-73
2021/08/08 13:53:07;;;;;;;0.30;0.30;;;;;;;;;;5113662;28;20207;-75
2021/08/08 13:55:33;;;;;;;0.00;0.00;;;;;;;;;;5110905;28;20358;-75
2021/08/08 13:57:59;;;;;;;0.00;0.00;;;;;;;;;;5114561;28;20239;-74
2021/08/08 14:00:26;;;;;;;0.00;0.00;;;;;;;;;;5112754;28;20207;-74
2021/08/08 14:02:52;;;;;;;0.08;0.08;;;;;;;;;;5110603;28;20199;-74
2021/08/08 14:05:18;;;;;;;0.00;0.00;;;;;;;;;;5116180;28;20214;-74
2021/08/08 14:07:45;;;;;;;0.00;0.00;;;;;;;;;;5122391;28;20213;-74
2021/08/08 14:10:13;;;;;;;0.00;0.00;;;;;;;;;;5111799;28;20493;-75
2021/08/08 14:12:39;;;;;;;0.00;0.00;;;;;;;;;;5107334;28;20202;-76
2021/08/08 14:15:06;;;;;;;0.00;0.00;;;;;;;;;;5116443;28;20202;-75
2021/08/08 14:17:33;;;;;;;0.00;0.00;;;;;;;;;;5118928;28;20223;-73
2021/08/08 14:19:59;;;;;;;0.00;0.00;;;;;;;;;;5112559;28;20547;-74
2021/08/08 14:22:25;;;;;;;0.00;0.00;;;;;;;;;;5119449;28;20493;-75
2021/08/08 14:24:51;;;;;;;0.00;0.00;;;;;;;;;;5121927;28;20409;-75
2021/08/08 14:27:19;;;;;;;0.00;0.00;;;;;;;;;;5118337;28;20388;-76
2021/08/08 14:29:45;;;;;;;0.00;0.00;;;;;;;;;;5110146;28;20535;-77
2021/08/08 14:32:12;;;;;;;0.00;0.00;;;;;;;;;;5117232;28;20252;-72
2021/08/08 14:34:38;;;;;;;0.00;0.00;;;;;;;;;;5108310;28;20220;-72
2021/08/08 14:37:04;;;;;;;0.00;0.00;;;;;;;;;;5110048;28;20214;-73
2021/08/08 14:39:31;;;;;;;0.00;0.00;;;;;;;;;;5107955;28;20198;-74
2021/08/08 14:41:58;;;;;;;0.08;0.08;;;;;;;;;;5108301;28;20535;-73